createdAt,value
2022-10-22T00:00:46.541Z,14.70
2022-10-22T00:03:14.715Z,14.70
2022-10-22T00:05:42.946Z,14.70
2022-10-22T00:08:10.585Z,14.60
2022-10-22T00:10:38.719Z,14.60
2022-10-22T00:13:06.383Z,14.60
2022-10-22T00:15:36.511Z,14.60
2022-10-22T00:18:04.330Z,14.50
2022-10-22T00:20:36.548Z,14.60
2022-10-22T00:23:09.618Z,14.50
2022-10-22T00:25:37.225Z,14.50
2022-10-22T00:28:04.968Z,14.50
2022-10-22T00:30:32.704Z,14.50
2022-10-22T00:33:00.336Z,14.50
2022-10-22T00:35:27.927Z,14.50
2022-10-22T00:37:55.543Z,14.60
2022-10-22T00:40:23.347Z,14.60
2022-10-22T00:42:50.941Z,14.60
2022-10-22T00:45:28.302Z,14.60
2022-10-22T00:48:04.637Z,14.70
2022-10-22T00:50:46.377Z,14.70
2022-10-22T00:53:18.852Z,14.70
2022-10-22T00:55:51.894Z,14.60
2022-10-22T00:58:21.867Z,14.70
2022-10-22T01:00:49.729Z,14.70
2022-10-22T01:03:17.443Z,14.70
2022-10-22T01:05:51.559Z,14.60
2022-10-22T01:08:45.774Z,14.60
2022-10-22T01:11:38.701Z,14.60
2022-10-22T01:14:54.283Z,14.60
2022-10-22T01:17:55.566Z,14.70
2022-10-22T01:20:41.456Z,14.60
2022-10-22T01:23:27.229Z,14.60
2022-10-22T01:26:02.243Z,14.50
2022-10-22T01:28:44.884Z,14.40
2022-10-22T01:31:13.582Z,14.40
2022-10-22T01:33:42.275Z,14.30
2022-10-22T01:36:11.472Z,14.30
2022-10-22T01:38:40.287Z,14.30
2022-10-22T01:41:08.562Z,14.20
2022-10-22T01:43:36.336Z,14.20
2022-10-22T01:46:06.041Z,14.20
2022-10-22T01:49:02.066Z,14.20
2022-10-22T01:51:35.634Z,14.20
2022-10-22T01:54:48.311Z,14.20
2022-10-22T01:57:23.993Z,14.20
2022-10-22T01:59:57.013Z,14.20
2022-10-22T02:05:23.162Z,14.30
2022-10-22T02:08:06.665Z,14.30
2022-10-22T02:10:37.206Z,14.30
2022-10-22T02:13:05.409Z,14.30
2022-10-22T02:15:34.805Z,14.20
2022-10-22T02:18:04.626Z,14.20
2022-10-22T02:20:33.635Z,14.30
2022-10-22T02:23:01.834Z,14.30
2022-10-22T02:25:36.276Z,14.30
2022-10-22T02:28:13.985Z,14.30
2022-10-22T02:30:44.383Z,14.40
2022-10-22T02:33:30.948Z,14.30
2022-10-22T02:36:00.337Z,14.30
2022-10-22T02:38:29.302Z,14.30
2022-10-22T02:40:57.006Z,14.30
2022-10-22T02:43:25.526Z,14.30
2022-10-22T02:45:53.208Z,14.30
2022-10-22T02:50:48.359Z,14.30
2022-10-22T02:53:15.928Z,14.30
2022-10-22T02:55:43.573Z,14.20
2022-10-22T02:58:11.165Z,14.20
2022-10-22T03:00:38.825Z,14.30
2022-10-22T03:03:06.498Z,14.30
2022-10-22T03:05:34.028Z,14.30
2022-10-22T03:08:01.558Z,14.30
2022-10-22T03:10:29.137Z,14.30
2022-10-22T03:12:56.753Z,14.30
2022-10-22T03:15:24.634Z,14.40
2022-10-22T03:17:52.310Z,14.40
2022-10-22T03:20:19.911Z,14.40
2022-10-22T03:22:47.729Z,14.40
2022-10-22T03:25:21.293Z,14.40
2022-10-22T03:27:52.444Z,14.40
2022-10-22T03:30:20.180Z,14.30
2022-10-22T03:32:47.824Z,14.30
2022-10-22T03:35:15.508Z,14.30
2022-10-22T03:37:43.293Z,14.30
2022-10-22T03:40:11.820Z,14.30
2022-10-22T03:42:40.918Z,14.30
2022-10-22T03:45:09.301Z,14.30
2022-10-22T03:47:37.475Z,14.30
2022-10-22T03:50:06.166Z,14.30
2022-10-22T03:52:38.573Z,14.30
2022-10-22T03:55:07.520Z,14.30
2022-10-22T03:57:35.193Z,14.30
2022-10-22T04:00:04.044Z,14.30
2022-10-22T04:02:32.872Z,14.30
2022-10-22T04:05:00.533Z,14.20
2022-10-22T04:07:28.596Z,14.10
2022-10-22T04:09:56.158Z,14.10
2022-10-22T04:12:23.771Z,14.00
2022-10-22T04:14:51.304Z,13.90
2022-10-22T04:17:18.931Z,13.80
2022-10-22T04:19:46.445Z,13.70
2022-10-22T04:22:14.047Z,13.70
2022-10-22T04:24:41.626Z,13.60
2022-10-22T04:27:09.333Z,13.60
2022-10-22T04:29:36.971Z,13.60
2022-10-22T04:32:04.787Z,13.50
2022-10-22T04:34:32.524Z,13.50
2022-10-22T04:37:00.091Z,13.40
2022-10-22T04:39:27.707Z,13.40
2022-10-22T04:41:55.247Z,13.40
2022-10-22T04:44:22.916Z,13.30
2022-10-22T04:46:50.638Z,13.30
2022-10-22T04:49:19.283Z,13.20
2022-10-22T04:51:46.915Z,13.20
2022-10-22T04:54:15.162Z,13.20
2022-10-22T04:56:42.976Z,13.10
2022-10-22T04:59:13.942Z,13.10
2022-10-22T05:01:44.343Z,13.00
2022-10-22T05:04:17.427Z,13.00
2022-10-22T05:06:45.724Z,13.00
2022-10-22T05:09:19.524Z,12.90
2022-10-22T05:11:50.182Z,13.00
2022-10-22T05:14:23.050Z,13.00
2022-10-22T05:16:51.658Z,13.00
2022-10-22T05:19:24.084Z,13.00
2022-10-22T05:21:53.570Z,13.00
2022-10-22T05:24:21.671Z,12.90
2022-10-22T05:26:50.921Z,12.90
2022-10-22T05:29:18.906Z,12.80
2022-10-22T05:31:46.994Z,12.80
2022-10-22T05:34:15.362Z,12.80
2022-10-22T05:36:42.964Z,12.70
2022-10-22T05:39:10.679Z,12.70
2022-10-22T05:41:38.711Z,12.60
2022-10-22T05:44:06.538Z,12.60
2022-10-22T05:46:36.274Z,12.60
2022-10-22T05:49:06.355Z,12.60
2022-10-22T05:51:36.546Z,12.60
2022-10-22T05:54:06.534Z,12.60
2022-10-22T05:56:35.029Z,12.50
2022-10-22T06:01:32.703Z,12.50
2022-10-22T06:04:02.864Z,12.50
2022-10-22T06:06:50.665Z,12.40
2022-10-22T06:09:20.426Z,12.40
2022-10-22T06:11:48.895Z,12.40
2022-10-22T06:14:16.853Z,12.30
2022-10-22T06:16:44.454Z,12.40
2022-10-22T06:19:13.779Z,12.40
2022-10-22T06:21:41.405Z,12.40
2022-10-22T06:24:10.469Z,12.40
2022-10-22T06:26:38.600Z,12.40
2022-10-22T06:29:06.678Z,12.40
2022-10-22T06:31:37.355Z,12.40
2022-10-22T06:34:05.418Z,12.40
2022-10-22T06:36:33.039Z,12.50
2022-10-22T06:39:00.678Z,12.50
2022-10-22T06:41:29.494Z,12.50
2022-10-22T06:43:58.072Z,12.50
2022-10-22T06:46:26.392Z,12.50
2022-10-22T06:48:56.339Z,12.50
2022-10-22T06:51:24.805Z,12.50
2022-10-22T06:53:53.875Z,12.50
2022-10-22T06:56:23.384Z,12.50
2022-10-22T06:58:52.675Z,12.60
2022-10-22T07:01:22.680Z,12.60
2022-10-22T07:03:51.925Z,12.70
2022-10-22T07:06:20.160Z,12.80
2022-10-22T07:08:47.840Z,12.80
2022-10-22T07:11:18.504Z,12.90
2022-10-22T07:13:46.481Z,12.90
2022-10-22T07:16:14.924Z,13.00
2022-10-22T07:18:43.439Z,13.00
2022-10-22T07:21:12.617Z,13.10
2022-10-22T07:23:40.280Z,13.20
2022-10-22T07:26:08.859Z,13.30
2022-10-22T07:28:39.838Z,13.40
2022-10-22T07:31:12.419Z,13.50
2022-10-22T07:33:40.491Z,13.60
2022-10-22T07:36:11.463Z,13.70
2022-10-22T07:38:39.006Z,13.80
2022-10-22T07:41:06.611Z,13.90
2022-10-22T07:43:34.242Z,14.00
2022-10-22T07:46:05.750Z,14.00
2022-10-22T07:48:33.336Z,14.10
2022-10-22T07:51:00.934Z,14.00
2022-10-22T07:53:28.729Z,14.10
2022-10-22T07:55:56.897Z,14.10
2022-10-22T07:58:29.913Z,14.10
2022-10-22T08:01:00.963Z,14.10
2022-10-22T08:03:29.780Z,14.00
2022-10-22T08:05:58.073Z,14.00
2022-10-22T08:08:29.673Z,14.10
2022-10-22T08:11:00.638Z,14.10
2022-10-22T08:13:30.647Z,14.10
2022-10-22T08:16:00.539Z,14.10
2022-10-22T08:18:28.787Z,14.20
2022-10-22T08:20:56.608Z,14.20
2022-10-22T08:23:27.616Z,14.20
2022-10-22T08:25:57.636Z,14.30
2022-10-22T08:28:26.057Z,14.40
2022-10-22T08:30:53.602Z,14.40
2022-10-22T08:33:21.231Z,14.50
2022-10-22T08:35:50.290Z,14.70
2022-10-22T08:38:19.078Z,14.90
2022-10-22T08:40:54.021Z,15.00
2022-10-22T08:43:30.288Z,15.00
2022-10-22T08:46:22.634Z,15.00
2022-10-22T08:48:54.319Z,15.00
2022-10-22T08:51:33.440Z,15.00
2022-10-22T08:54:32.083Z,14.90
2022-10-22T08:57:09.063Z,14.90
2022-10-22T09:00:04.762Z,15.00
2022-10-22T09:02:56.374Z,15.00
2022-10-22T09:05:39.437Z,15.10
2022-10-22T09:08:12.261Z,15.10
2022-10-22T09:10:46.326Z,15.20
2022-10-22T09:13:18.567Z,15.20
2022-10-22T09:16:14.114Z,15.40
2022-10-22T09:18:45.639Z,15.50
2022-10-22T09:21:38.855Z,15.70
2022-10-22T09:24:30.826Z,15.90
2022-10-22T09:27:02.134Z,16.10
2022-10-22T09:29:33.596Z,16.30
2022-10-22T09:32:01.595Z,16.40
2022-10-22T09:34:30.342Z,16.60
2022-10-22T09:37:03.858Z,16.70
2022-10-22T09:39:36.974Z,16.80
2022-10-22T09:42:18.055Z,16.80
2022-10-22T09:44:56.353Z,16.80
2022-10-22T09:47:43.166Z,16.80
2022-10-22T09:50:28.176Z,16.80
2022-10-22T09:53:12.909Z,16.90
2022-10-22T09:55:43.254Z,17.00
2022-10-22T09:58:14.393Z,17.10
2022-10-22T10:00:45.856Z,17.10
2022-10-22T10:03:19.518Z,17.20
2022-10-22T10:05:52.733Z,17.30
2022-10-22T10:08:20.920Z,17.50
2022-10-22T10:20:21.681Z,18.70
2022-10-22T10:23:28.475Z,19.20
2022-10-22T10:26:45.782Z,19.80
2022-10-22T10:30:10.386Z,20.60
2022-10-22T10:39:33.131Z,22.30
2022-10-22T10:43:28.736Z,23.10
2022-10-22T10:46:25.741Z,23.30
2022-10-22T10:49:07.524Z,23.10
2022-10-22T10:51:46.629Z,22.70
2022-10-22T10:57:32.443Z,22.30
2022-10-22T11:00:12.453Z,22.30
2022-10-22T11:03:16.125Z,22.30
2022-10-22T11:06:14.870Z,22.20
2022-10-22T11:09:37.846Z,21.90
2022-10-22T11:12:37.456Z,21.50
2022-10-22T11:15:28.393Z,21.50
2022-10-22T11:18:07.809Z,21.60
2022-10-22T11:20:46.532Z,21.60
2022-10-22T11:23:33.439Z,21.80
2022-10-22T11:26:02.375Z,21.80
2022-10-22T11:28:42.264Z,21.90
2022-10-22T11:31:24.960Z,21.90
2022-10-22T11:34:04.847Z,21.80
2022-10-22T11:36:39.072Z,21.80
2022-10-22T11:39:06.866Z,21.70
2022-10-22T11:41:37.878Z,21.80
2022-10-22T11:44:12.740Z,22.00
2022-10-22T11:46:59.432Z,22.40
2022-10-22T11:49:41.907Z,23.10
2022-10-22T11:52:34.663Z,23.70
2022-10-22T11:55:04.086Z,24.10
2022-10-22T11:57:39.587Z,24.30
2022-10-22T12:00:48.755Z,24.40
2022-10-22T12:03:27.175Z,24.30
2022-10-22T12:06:13.096Z,24.20
2022-10-22T12:08:50.318Z,24.10
2022-10-22T12:11:27.962Z,23.70
2022-10-22T12:14:26.897Z,23.40
2022-10-22T12:16:58.008Z,23.10
2022-10-22T12:19:43.545Z,23.00
2022-10-22T12:22:36.243Z,23.00
2022-10-22T12:25:10.225Z,23.00
2022-10-22T12:27:40.720Z,22.70
2022-10-22T12:30:36.043Z,22.30
2022-10-22T12:33:07.753Z,21.90
2022-10-22T12:35:45.252Z,21.70
2022-10-22T12:38:16.431Z,22.00
2022-10-22T12:40:50.051Z,22.30
2022-10-22T12:43:31.278Z,22.50
2022-10-22T12:46:03.253Z,22.40
2022-10-22T12:48:42.770Z,22.40
2022-10-22T12:51:19.640Z,22.40
2022-10-22T12:53:56.372Z,22.30
2022-10-22T12:56:31.930Z,22.00
2022-10-22T12:59:16.694Z,21.60
2022-10-22T13:01:45.258Z,21.20
2022-10-22T13:04:20.837Z,20.80
2022-10-22T13:07:04.310Z,20.50
2022-10-22T13:09:58.236Z,20.10
2022-10-22T13:12:30.488Z,19.70
2022-10-22T13:15:18.077Z,19.50
2022-10-22T13:17:48.443Z,19.20
2022-10-22T13:20:23.086Z,19.00
2022-10-22T13:23:00.618Z,18.90
2022-10-22T13:25:51.031Z,18.80
2022-10-22T13:28:22.078Z,18.80
2022-10-22T13:30:58.440Z,18.70
2022-10-22T13:33:34.935Z,18.60
2022-10-22T13:36:03.879Z,18.50
2022-10-22T13:38:31.795Z,18.30
2022-10-22T13:40:59.639Z,18.20
2022-10-22T13:43:27.549Z,18.00
2022-10-22T13:45:59.073Z,18.00
2022-10-22T13:48:31.953Z,18.00
2022-10-22T13:51:00.651Z,18.10
2022-10-22T13:53:30.485Z,18.20
2022-10-22T13:55:58.268Z,18.40
2022-10-22T13:58:26.142Z,18.50
2022-10-22T14:02:07.031Z,18.70
2022-10-22T14:04:39.318Z,18.80
2022-10-22T14:07:33.256Z,18.90
2022-10-22T14:10:00.999Z,19.00
2022-10-22T14:12:28.858Z,19.00
2022-10-22T14:15:01.237Z,19.00
2022-10-22T14:17:29.842Z,19.00
2022-10-22T14:19:58.251Z,18.90
2022-10-22T14:22:28.512Z,18.90
2022-10-22T14:24:56.459Z,18.90
2022-10-22T14:27:24.222Z,18.80
2022-10-22T14:29:54.044Z,18.80
2022-10-22T14:32:27.187Z,18.70
2022-10-22T14:35:20.629Z,18.70
2022-10-22T14:38:02.929Z,18.60
2022-10-22T14:40:31.982Z,18.50
2022-10-22T14:43:02.866Z,18.40
2022-10-22T14:45:33.906Z,18.30
2022-10-22T14:48:02.127Z,18.20
2022-10-22T14:50:33.772Z,18.10
2022-10-22T14:53:05.230Z,18.10
2022-10-22T14:55:35.758Z,18.10
2022-10-22T14:58:04.737Z,18.00
2022-10-22T15:00:37.262Z,18.10
2022-10-22T15:03:05.394Z,18.00
2022-10-22T15:05:34.251Z,17.90
2022-10-22T15:08:03.471Z,18.00
2022-10-22T15:10:32.830Z,18.00
2022-10-22T15:13:00.774Z,17.90
2022-10-22T15:15:32.762Z,18.10
2022-10-22T15:18:05.632Z,18.10
2022-10-22T15:20:34.981Z,18.10
2022-10-22T15:23:02.925Z,18.10
2022-10-22T15:25:31.954Z,18.00
2022-10-22T15:28:06.101Z,18.00
2022-10-22T15:30:37.731Z,17.90
2022-10-22T15:33:06.449Z,17.90
2022-10-22T15:35:34.374Z,17.80
2022-10-22T15:38:02.335Z,17.80
2022-10-22T15:40:31.329Z,17.80
2022-10-22T15:43:00.241Z,17.70
2022-10-22T15:45:30.779Z,18.00
2022-10-22T15:48:00.027Z,17.60
2022-10-22T15:50:47.807Z,17.60
2022-10-22T15:53:15.765Z,17.50
2022-10-22T15:55:49.892Z,17.40
2022-10-22T15:58:17.574Z,17.30
2022-10-22T16:00:45.377Z,17.30
2022-10-22T16:03:13.130Z,17.30
2022-10-22T16:05:40.845Z,17.20
2022-10-22T16:08:09.682Z,17.10
2022-10-22T16:10:37.367Z,17.10
2022-10-22T16:13:05.290Z,17.00
2022-10-22T16:15:35.170Z,16.90
2022-10-22T16:18:04.633Z,16.90
2022-10-22T16:20:32.270Z,16.80
2022-10-22T16:23:01.167Z,16.80
2022-10-22T16:25:29.130Z,16.70
2022-10-22T16:27:57.925Z,16.70
2022-10-22T16:30:25.768Z,16.70
2022-10-22T16:32:53.542Z,16.60
2022-10-22T16:35:21.303Z,16.60
2022-10-22T16:37:49.061Z,16.50
2022-10-22T16:40:17.029Z,16.50
2022-10-22T16:42:45.126Z,16.40
2022-10-22T16:47:43.215Z,16.30
2022-10-22T16:50:12.158Z,16.30
2022-10-22T16:52:39.783Z,16.30
2022-10-22T16:55:07.927Z,16.20
2022-10-22T16:57:40.336Z,16.20
2022-10-22T17:00:08.989Z,16.10
2022-10-22T17:02:37.622Z,16.10
2022-10-22T17:05:05.802Z,16.00
2022-10-22T17:07:33.639Z,16.00
2022-10-22T17:10:03.576Z,15.90
2022-10-22T17:12:35.456Z,15.90
2022-10-22T17:15:05.484Z,15.90
2022-10-22T17:17:34.086Z,15.80
2022-10-22T17:20:01.910Z,15.80
2022-10-22T17:22:29.755Z,15.80
2022-10-22T17:25:55.934Z,15.70
2022-10-22T17:28:26.342Z,15.70
2022-10-22T17:31:09.517Z,15.70
2022-10-22T17:33:37.611Z,15.60
2022-10-22T17:36:11.085Z,15.60
2022-10-22T17:38:40.831Z,15.60
2022-10-22T17:41:13.798Z,15.60
2022-10-22T17:43:42.746Z,15.50
2022-10-22T17:46:15.083Z,15.50
2022-10-22T17:48:42.828Z,15.50
2022-10-22T17:51:11.852Z,15.40
2022-10-22T17:53:46.194Z,15.40
2022-10-22T17:56:16.571Z,15.40
2022-10-22T17:58:44.468Z,15.30
2022-10-22T18:01:21.510Z,15.30
2022-10-22T18:09:23.719Z,15.20
2022-10-22T18:11:55.500Z,15.10
2022-10-22T18:14:25.332Z,15.10
2022-10-22T18:16:54.916Z,15.00
2022-10-22T18:19:24.655Z,15.00
2022-10-22T18:21:56.006Z,14.90
2022-10-22T18:24:23.974Z,14.90
2022-10-22T18:26:55.267Z,14.90
2022-10-22T18:29:23.497Z,14.80
2022-10-22T18:31:55.030Z,14.80
2022-10-22T18:34:25.593Z,14.90
2022-10-22T18:36:59.758Z,14.90
2022-10-22T18:39:32.506Z,14.90
2022-10-22T18:42:10.721Z,14.90
2022-10-22T18:44:49.161Z,14.90
2022-10-22T18:47:18.893Z,14.90
2022-10-22T18:49:47.625Z,15.00
2022-10-22T18:52:25.168Z,15.00
2022-10-22T18:54:56.292Z,15.00
2022-10-22T18:57:30.940Z,15.00
2022-10-22T19:00:01.401Z,15.00
2022-10-22T19:02:30.524Z,15.00
2022-10-22T19:04:58.428Z,15.10
2022-10-22T19:07:37.051Z,15.60
2022-10-22T19:10:08.643Z,15.10
2022-10-22T19:12:40.156Z,14.50
2022-10-22T19:15:09.130Z,15.10
2022-10-22T19:17:37.631Z,15.10
2022-10-22T19:20:06.739Z,15.10
2022-10-22T19:22:42.908Z,15.10
2022-10-22T19:33:10.082Z,15.10
2022-10-22T19:41:14.459Z,15.00
2022-10-22T19:46:05.101Z,15.00
2022-10-22T19:48:29.357Z,14.90
2022-10-22T20:00:28.938Z,14.80
2022-10-22T20:27:14.739Z,14.60
2022-10-22T20:31:00.289Z,14.70
2022-10-22T20:33:55.507Z,14.70
2022-10-22T20:54:04.359Z,14.80
2022-10-22T20:56:32.955Z,14.80
2022-10-22T20:59:20.882Z,14.80
2022-10-22T21:01:54.884Z,15.40
2022-10-22T21:04:23.893Z,14.80
2022-10-22T21:06:58.657Z,14.80
2022-10-22T21:09:34.886Z,14.80
2022-10-22T21:12:04.115Z,14.80
2022-10-22T21:14:36.263Z,14.90
2022-10-22T21:17:04.933Z,14.90
2022-10-22T21:19:33.656Z,14.70
2022-10-22T21:22:01.913Z,14.90
2022-10-22T21:24:32.454Z,14.90
2022-10-22T21:27:00.716Z,15.00
2022-10-22T21:29:30.105Z,15.00
2022-10-22T21:31:58.185Z,15.00
2022-10-22T21:34:26.476Z,15.10
2022-10-22T21:37:04.523Z,15.20
2022-10-22T21:39:32.413Z,15.20
2022-10-22T21:42:03.245Z,15.20
2022-10-22T21:44:33.463Z,15.20
2022-10-22T21:47:01.542Z,15.20
2022-10-22T21:49:29.311Z,15.20
2022-10-22T21:52:00.155Z,15.20
2022-10-22T21:54:28.982Z,15.20
2022-10-22T21:56:57.719Z,15.10
2022-10-22T21:59:25.532Z,15.10
2022-10-22T22:01:54.941Z,15.10
2022-10-22T22:04:22.853Z,15.10
2022-10-22T22:06:51.791Z,15.10
2022-10-22T22:09:20.771Z,15.10
2022-10-22T22:11:58.444Z,15.00
2022-10-22T22:14:26.146Z,15.00
2022-10-22T22:16:54.074Z,15.00
2022-10-22T22:19:23.078Z,15.00
2022-10-22T22:21:53.057Z,15.00
2022-10-22T22:24:20.861Z,15.00
2022-10-22T22:26:56.231Z,15.00
2022-10-22T22:29:24.411Z,15.00
2022-10-22T22:31:53.266Z,15.00
2022-10-22T22:34:21.252Z,15.00
2022-10-22T22:36:52.128Z,15.00
2022-10-22T22:39:23.911Z,15.00
2022-10-22T22:41:59.290Z,15.00
2022-10-22T22:44:27.256Z,15.10
2022-10-22T22:46:55.054Z,15.00
2022-10-22T22:49:22.739Z,15.10
2022-10-22T22:51:56.237Z,15.10
2022-10-22T22:54:24.249Z,15.10
2022-10-22T22:56:55.843Z,15.10
2022-10-22T22:59:23.625Z,15.10
2022-10-22T23:01:51.608Z,15.10
2022-10-22T23:04:26.402Z,15.10
2022-10-22T23:06:54.050Z,15.10
2022-10-22T23:09:23.522Z,15.10
2022-10-22T23:11:56.283Z,15.00
2022-10-22T23:14:26.312Z,15.10
2022-10-22T23:16:54.088Z,15.00
2022-10-22T23:19:29.569Z,14.90
2022-10-22T23:21:58.462Z,15.00
2022-10-22T23:24:28.624Z,14.90
2022-10-22T23:26:59.653Z,14.90
2022-10-22T23:29:30.551Z,14.90
2022-10-22T23:32:06.811Z,14.80
2022-10-22T23:34:34.532Z,14.90
2022-10-22T23:37:04.120Z,14.80
2022-10-22T23:39:36.254Z,14.80
2022-10-22T23:42:05.322Z,14.80
2022-10-22T23:44:33.629Z,14.80
2022-10-22T23:47:02.553Z,14.80
2022-10-22T23:49:32.443Z,14.80
2022-10-22T23:52:04.820Z,14.80
2022-10-22T23:54:32.986Z,14.70
2022-10-22T23:57:03.754Z,14.80
2022-10-22T23:59:33.362Z,14.80
